createdAt,value
2018-10-18T00:01:28.523Z,26.80
2018-10-18T00:04:00.424Z,24.93
2018-10-18T00:06:32.325Z,26.63
2018-10-18T00:09:06.248Z,27.30
2018-10-18T00:11:38.024Z,22.60
2018-10-18T00:14:09.874Z,23.53
2018-10-18T00:16:41.591Z,19.70
2018-10-18T00:19:13.950Z,20.83
2018-10-18T00:21:45.595Z,21.23
2018-10-18T00:24:17.331Z,22.33
2018-10-18T00:26:50.042Z,21.43
2018-10-18T00:29:21.824Z,21.57
2018-10-18T00:31:53.898Z,23.40
2018-10-18T00:34:25.899Z,20.30
2018-10-18T00:36:57.632Z,22.50
2018-10-18T00:39:29.467Z,20.73
2018-10-18T00:42:02.081Z,22.77
2018-10-18T00:44:34.690Z,20.13
2018-10-18T00:47:06.682Z,22.23
2018-10-18T00:49:38.858Z,20.03
2018-10-18T00:52:10.554Z,23.20
2018-10-18T00:54:42.362Z,19.53
2018-10-18T00:57:13.905Z,21.20
2018-10-18T00:59:45.884Z,19.40
2018-10-18T01:02:17.886Z,22.40
2018-10-18T01:04:49.854Z,19.47
2018-10-18T01:07:21.574Z,21.20
2018-10-18T01:09:53.403Z,19.77
2018-10-18T01:12:25.336Z,18.93
2018-10-18T01:14:57.280Z,22.93
2018-10-18T01:17:29.042Z,24.73
2018-10-18T01:20:00.850Z,20.27
2018-10-18T01:22:32.610Z,20.73
2018-10-18T01:25:04.338Z,18.57
2018-10-18T01:27:36.123Z,21.33
2018-10-18T01:30:08.473Z,21.57
2018-10-18T01:32:40.203Z,19.77
2018-10-18T01:35:12.154Z,20.57
2018-10-18T01:37:44.589Z,20.00
2018-10-18T01:40:16.238Z,21.83
2018-10-18T01:42:47.953Z,19.10
2018-10-18T01:45:19.680Z,21.40
2018-10-18T01:47:52.233Z,23.53
2018-10-18T01:50:23.826Z,20.37
2018-10-18T01:52:55.604Z,21.23
2018-10-18T01:55:27.426Z,22.43
2018-10-18T01:57:59.100Z,19.87
2018-10-18T02:00:30.842Z,20.50
2018-10-18T02:03:02.702Z,24.10
2018-10-18T02:05:35.373Z,23.30
2018-10-18T02:08:07.101Z,23.63
2018-10-18T02:10:38.871Z,22.50
2018-10-18T02:13:10.746Z,28.10
2018-10-18T02:15:42.422Z,24.83
2018-10-18T02:18:14.448Z,28.47
2018-10-18T02:20:46.149Z,24.63
2018-10-18T02:23:17.914Z,27.97
2018-10-18T02:25:49.467Z,29.67
2018-10-18T02:28:21.194Z,29.77
2018-10-18T02:30:53.042Z,28.90
2018-10-18T02:33:25.695Z,29.30
2018-10-18T02:35:57.472Z,37.67
2018-10-18T02:38:29.865Z,33.87
2018-10-18T02:41:01.571Z,31.63
2018-10-18T02:43:33.492Z,32.93
2018-10-18T02:46:05.214Z,35.53
2018-10-18T02:48:37.115Z,37.20
2018-10-18T02:51:09.084Z,39.83
2018-10-18T02:53:40.918Z,42.03
2018-10-18T02:56:12.605Z,46.50
2018-10-18T02:58:44.277Z,43.30
2018-10-18T03:01:16.108Z,47.47
2018-10-18T03:03:47.761Z,40.70
2018-10-18T03:06:19.725Z,43.27
2018-10-18T03:08:51.763Z,47.33
2018-10-18T03:11:23.446Z,45.63
2018-10-18T03:13:55.297Z,49.00
2018-10-18T03:16:27.621Z,35.60
2018-10-18T03:19:01.813Z,36.57
2018-10-18T03:21:34.410Z,46.73
2018-10-18T03:24:06.151Z,42.73
2018-10-18T03:26:37.960Z,44.43
2018-10-18T03:29:09.573Z,41.40
2018-10-18T03:31:41.252Z,50.63
2018-10-18T03:34:13.609Z,39.50
2018-10-18T03:36:45.231Z,38.83
2018-10-18T03:39:16.951Z,42.70
2018-10-18T03:41:49.590Z,39.33
2018-10-18T03:44:21.511Z,40.60
2018-10-18T03:46:53.267Z,36.70
2018-10-18T03:49:24.967Z,37.90
2018-10-18T03:51:57.652Z,40.37
2018-10-18T03:54:30.148Z,38.10
2018-10-18T03:57:01.750Z,37.47
2018-10-18T03:59:33.346Z,40.03
2018-10-18T04:02:05.267Z,40.30
2018-10-18T04:04:36.986Z,35.83
2018-10-18T04:07:09.490Z,37.50
2018-10-18T04:09:41.242Z,33.20
2018-10-18T04:12:13.275Z,37.43
2018-10-18T04:14:44.870Z,34.57
2018-10-18T04:17:16.545Z,33.00
2018-10-18T04:19:49.130Z,37.20
2018-10-18T04:22:20.873Z,38.23
2018-10-18T04:24:52.700Z,38.27
2018-10-18T04:27:25.152Z,34.87
2018-10-18T04:29:57.475Z,34.80
2018-10-18T04:32:29.570Z,37.57
2018-10-18T04:35:01.196Z,33.17
2018-10-18T04:37:32.923Z,34.37
2018-10-18T04:40:05.454Z,36.77
2018-10-18T04:42:37.206Z,41.10
2018-10-18T04:45:09.734Z,39.30
2018-10-18T04:47:41.761Z,48.10
2018-10-18T04:50:13.391Z,38.70
2018-10-18T04:52:45.151Z,45.50
2018-10-18T04:55:17.026Z,50.63
2018-10-18T04:57:49.608Z,50.80
2018-10-18T05:00:21.296Z,48.90
2018-10-18T05:02:53.118Z,49.13
2018-10-18T05:05:58.526Z,55.50
2018-10-18T05:08:30.545Z,55.23
2018-10-18T05:11:02.391Z,52.50
2018-10-18T05:13:34.021Z,56.93
2018-10-18T05:16:06.091Z,51.90
2018-10-18T05:18:38.112Z,55.37
2018-10-18T05:21:09.962Z,55.63
2018-10-18T05:23:41.721Z,59.53
2018-10-18T05:26:13.655Z,56.23
2018-10-18T05:28:45.760Z,57.93
2018-10-18T05:31:17.707Z,54.47
2018-10-18T05:33:49.306Z,64.93
2018-10-18T05:36:21.159Z,63.93
2018-10-18T05:38:53.177Z,56.30
2018-10-18T05:41:25.687Z,52.00
2018-10-18T05:43:57.378Z,63.20
2018-10-18T05:46:29.060Z,57.77
2018-10-18T05:49:00.965Z,49.30
2018-10-18T05:51:32.650Z,57.67
2018-10-18T05:54:04.284Z,54.30
2018-10-18T05:56:36.184Z,57.20
2018-10-18T05:59:07.895Z,55.37
2018-10-18T06:01:39.635Z,52.50
2018-10-18T06:04:11.952Z,59.13
2018-10-18T06:06:43.604Z,59.37
2018-10-18T06:09:19.427Z,52.90
2018-10-18T06:11:51.742Z,50.53
2018-10-18T06:14:23.443Z,49.40
2018-10-18T06:16:56.159Z,45.40
2018-10-18T06:19:27.929Z,43.37
2018-10-18T06:21:59.643Z,37.77
2018-10-18T06:24:31.383Z,38.00
2018-10-18T06:27:03.921Z,40.30
2018-10-18T06:29:35.355Z,30.13
2018-10-18T06:32:07.077Z,25.30
2018-10-18T06:34:39.023Z,28.07
2018-10-18T06:37:10.704Z,24.47
2018-10-18T06:39:42.380Z,15.63
2018-10-18T06:42:14.201Z,20.67
2018-10-18T06:44:47.646Z,19.27
2018-10-18T06:47:19.638Z,16.93
2018-10-18T06:49:51.984Z,14.30
2018-10-18T06:52:23.707Z,12.63
2018-10-18T06:54:55.567Z,13.30
2018-10-18T06:57:27.415Z,9.93
2018-10-18T06:59:59.737Z,9.07
2018-10-18T07:02:32.050Z,8.73
2018-10-18T07:05:03.665Z,7.50
2018-10-18T07:07:35.463Z,6.90
2018-10-18T07:10:07.614Z,7.47
2018-10-18T07:12:40.019Z,6.13
2018-10-18T07:15:12.795Z,6.10
2018-10-18T07:17:45.248Z,6.90
2018-10-18T07:20:17.191Z,9.73
2018-10-18T07:22:49.311Z,7.50
2018-10-18T07:25:21.749Z,9.80
2018-10-18T07:27:54.295Z,5.23
2018-10-18T07:30:25.917Z,5.50
2018-10-18T07:32:57.687Z,8.53
2018-10-18T07:35:29.421Z,6.43
2018-10-18T07:38:00.984Z,5.83
2018-10-18T07:40:32.905Z,13.27
2018-10-18T07:43:05.476Z,6.00
2018-10-18T07:45:50.536Z,6.23
2018-10-18T07:48:29.434Z,7.70
2018-10-18T07:51:01.148Z,8.67
2018-10-18T07:53:33.861Z,7.60
2018-10-18T07:56:07.256Z,10.73
2018-10-18T07:58:39.200Z,6.80
2018-10-18T08:01:10.925Z,4.80
2018-10-18T08:03:42.518Z,8.40
2018-10-18T08:06:15.308Z,8.17
2018-10-18T08:08:47.396Z,5.97
2018-10-18T08:11:19.140Z,6.20
2018-10-18T08:13:51.522Z,4.60
2018-10-18T08:16:23.298Z,4.10
2018-10-18T08:18:54.968Z,4.37
2018-10-18T08:21:26.820Z,3.53
2018-10-18T08:23:59.181Z,7.90
2018-10-18T08:26:31.025Z,4.90
2018-10-18T08:29:02.809Z,5.90
2018-10-18T08:31:35.545Z,5.70
2018-10-18T08:34:08.348Z,4.90
2018-10-18T08:36:39.966Z,5.80
2018-10-18T08:39:13.370Z,4.60
2018-10-18T08:41:45.732Z,4.53
2018-10-18T08:44:19.479Z,7.57
2018-10-18T08:46:52.804Z,1.73
2018-10-18T08:49:27.904Z,5.20
2018-10-18T08:52:00.689Z,6.50
2018-10-18T08:54:32.442Z,9.83
2018-10-18T08:57:04.158Z,3.53
2018-10-18T08:59:35.998Z,7.57
2018-10-18T09:02:07.824Z,7.80
2018-10-18T09:04:39.498Z,9.63
2018-10-18T09:07:11.236Z,4.90
2018-10-18T09:09:43.124Z,11.63
2018-10-18T09:12:14.758Z,5.50
2018-10-18T09:14:46.506Z,4.23
2018-10-18T09:17:18.122Z,6.23
2018-10-18T09:19:49.928Z,8.27
2018-10-18T09:22:22.390Z,4.73
2018-10-18T09:24:54.229Z,10.80
2018-10-18T09:27:25.930Z,3.27
2018-10-18T09:29:57.694Z,4.73
2018-10-18T09:32:29.361Z,6.77
2018-10-18T09:35:01.219Z,5.40
2018-10-18T09:37:33.286Z,3.67
2018-10-18T09:40:05.277Z,4.97
2018-10-18T09:42:37.114Z,3.30
2018-10-18T09:45:10.935Z,5.30
2018-10-18T09:47:42.566Z,4.83
2018-10-18T09:50:14.354Z,7.37
2018-10-18T09:52:46.816Z,5.87
2018-10-18T09:55:18.567Z,7.57
2018-10-18T09:57:50.300Z,7.07
2018-10-18T10:00:26.977Z,3.43
2018-10-18T10:03:03.535Z,5.67
2018-10-18T10:05:35.522Z,5.43
2018-10-18T10:08:07.118Z,9.63
2018-10-18T10:10:39.131Z,6.03
2018-10-18T10:13:10.903Z,4.70
2018-10-18T10:15:43.218Z,5.97
2018-10-18T10:18:15.066Z,2.47
2018-10-18T10:20:46.920Z,10.00
2018-10-18T10:23:19.151Z,2.90
2018-10-18T10:25:51.068Z,6.70
2018-10-18T10:28:22.996Z,3.53
2018-10-18T10:30:54.989Z,7.00
2018-10-18T10:33:27.419Z,5.43
2018-10-18T10:36:00.044Z,7.40
2018-10-18T10:38:32.613Z,6.23
2018-10-18T10:41:05.133Z,3.67
2018-10-18T10:43:36.783Z,3.43
2018-10-18T10:46:08.675Z,9.97
2018-10-18T10:48:40.983Z,4.73
2018-10-18T10:51:12.903Z,4.33
2018-10-18T10:53:45.416Z,3.40
2018-10-18T10:56:17.114Z,2.60
2018-10-18T10:58:48.973Z,5.27
2018-10-18T11:01:24.453Z,4.37
2018-10-18T11:03:58.308Z,5.43
2018-10-18T11:06:29.975Z,4.60
2018-10-18T11:09:01.814Z,5.10
2018-10-18T11:11:33.182Z,2.30
2018-10-18T11:14:05.212Z,2.40
2018-10-18T11:16:36.785Z,3.10
2018-10-18T11:19:08.651Z,3.07
2018-10-18T11:21:40.806Z,4.87
2018-10-18T11:24:12.760Z,4.63
2018-10-18T11:26:44.688Z,9.67
2018-10-18T11:29:16.614Z,4.30
2018-10-18T11:31:48.879Z,1.60
2018-10-18T11:34:20.740Z,6.27
2018-10-18T11:36:52.909Z,4.77
2018-10-18T11:39:25.105Z,3.50
2018-10-18T11:41:58.258Z,4.50
2018-10-18T11:44:34.944Z,5.93
2018-10-18T11:47:06.705Z,3.73
2018-10-18T11:49:38.579Z,2.40
2018-10-18T11:52:10.446Z,2.23
2018-10-18T11:54:42.337Z,4.33
2018-10-18T11:57:14.329Z,3.03
2018-10-18T11:59:46.188Z,2.23
2018-10-18T12:02:18.609Z,1.60
2018-10-18T12:04:50.156Z,2.57
2018-10-18T12:07:21.887Z,6.63
2018-10-18T12:09:53.615Z,4.00
2018-10-18T12:12:25.252Z,3.60
2018-10-18T12:14:57.167Z,1.50
2018-10-18T12:17:29.054Z,3.40
2018-10-18T12:20:02.085Z,3.37
2018-10-18T12:22:34.087Z,4.17
2018-10-18T12:25:06.786Z,3.87
2018-10-18T12:27:38.792Z,4.13
2018-10-18T12:30:11.225Z,2.77
2018-10-18T12:32:42.858Z,2.43
2018-10-18T12:35:15.628Z,2.80
2018-10-18T12:37:47.674Z,2.60
2018-10-18T12:40:19.383Z,2.77
2018-10-18T12:42:52.260Z,3.37
2018-10-18T12:45:24.088Z,4.07
2018-10-18T12:47:55.917Z,3.10
2018-10-18T12:50:28.510Z,1.80
2018-10-18T12:53:00.437Z,3.47
2018-10-18T12:55:32.682Z,2.53
2018-10-18T12:58:04.903Z,5.23
2018-10-18T13:00:36.683Z,3.20
2018-10-18T13:03:08.383Z,3.97
2018-10-18T13:05:40.085Z,3.73
2018-10-18T13:08:11.762Z,2.40
2018-10-18T13:10:43.622Z,4.10
2018-10-18T13:13:15.572Z,3.30
2018-10-18T13:15:48.228Z,4.83
2018-10-18T13:18:19.851Z,25.63
2018-10-18T13:20:51.824Z,32.43
2018-10-18T13:23:24.321Z,19.57
2018-10-18T13:25:57.020Z,20.07
2018-10-18T13:28:28.718Z,23.53
2018-10-18T13:31:00.568Z,24.30
2018-10-18T13:33:32.190Z,28.20
2018-10-18T13:36:04.165Z,26.13
2018-10-18T13:38:36.229Z,19.80
2018-10-18T13:41:08.268Z,10.30
2018-10-18T13:43:40.369Z,10.53
2018-10-18T13:46:13.231Z,14.93
2018-10-18T13:48:45.230Z,8.40
2018-10-18T13:51:17.156Z,6.73
2018-10-18T13:53:49.624Z,4.33
2018-10-18T13:56:21.341Z,3.40
2018-10-18T13:58:54.086Z,6.43
2018-10-18T14:01:26.166Z,6.20
2018-10-18T14:03:57.972Z,4.90
2018-10-18T14:06:31.160Z,6.87
2018-10-18T14:09:02.858Z,2.53
2018-10-18T14:11:34.598Z,3.40
2018-10-18T14:14:06.451Z,1.90
2018-10-18T14:16:38.586Z,3.43
2018-10-18T14:19:10.135Z,2.70
2018-10-18T14:21:42.009Z,6.90
2018-10-18T14:24:14.589Z,7.93
2018-10-18T14:26:46.408Z,4.83
2018-10-18T14:29:18.584Z,4.70
2018-10-18T14:31:50.389Z,5.93
2018-10-18T14:34:22.343Z,4.97
2018-10-18T14:36:54.895Z,4.73
2018-10-18T14:39:27.478Z,4.00
2018-10-18T14:41:59.297Z,5.33
2018-10-18T14:44:31.293Z,5.10
2018-10-18T14:47:03.222Z,4.17
2018-10-18T14:49:35.209Z,1.97
2018-10-18T14:52:07.097Z,7.97
2018-10-18T14:54:38.754Z,6.63
2018-10-18T14:57:10.545Z,5.10
2018-10-18T14:59:42.854Z,3.10
2018-10-18T15:02:14.902Z,5.37
2018-10-18T15:04:46.705Z,4.37
2018-10-18T15:07:18.623Z,3.13
2018-10-18T15:09:50.381Z,2.30
2018-10-18T15:12:22.011Z,6.77
2018-10-18T15:14:53.867Z,4.63
2018-10-18T15:17:25.898Z,4.13
2018-10-18T15:19:58.546Z,4.13
2018-10-18T15:22:30.506Z,2.37
2018-10-18T15:25:02.284Z,3.30
2018-10-18T15:27:34.073Z,5.47
2018-10-18T15:30:06.665Z,1.90
2018-10-18T15:32:40.063Z,6.77
2018-10-18T15:35:12.671Z,7.70
2018-10-18T15:37:44.720Z,4.67
2018-10-18T15:40:16.731Z,5.43
2018-10-18T15:42:48.845Z,3.93
2018-10-18T15:45:20.792Z,3.00
2018-10-18T15:47:52.841Z,1.50
2018-10-18T15:50:24.604Z,2.93
2018-10-18T15:52:56.766Z,2.10
2018-10-18T15:55:28.664Z,9.60
2018-10-18T15:58:00.665Z,3.53
2018-10-18T16:00:32.319Z,5.03
2018-10-18T16:03:06.380Z,5.10
2018-10-18T16:05:38.642Z,8.23
2018-10-18T16:08:10.313Z,5.17
2018-10-18T16:10:42.100Z,6.63
2018-10-18T16:13:14.847Z,5.57
2018-10-18T16:15:46.828Z,2.20
2018-10-18T16:18:18.751Z,2.53
2018-10-18T16:20:51.025Z,1.97
2018-10-18T16:23:23.782Z,4.37
2018-10-18T16:25:56.499Z,2.97
2018-10-18T16:28:28.500Z,3.87
2018-10-18T16:31:00.370Z,3.57
2018-10-18T16:33:31.937Z,2.60
2018-10-18T16:36:03.643Z,3.67
2018-10-18T16:38:35.532Z,5.30
2018-10-18T16:41:07.429Z,6.17
2018-10-18T16:43:38.978Z,3.40
2018-10-18T16:46:10.911Z,3.60
2018-10-18T16:48:42.804Z,2.27
2018-10-18T16:51:14.846Z,6.87
2018-10-18T16:53:46.708Z,6.40
2018-10-18T16:56:18.477Z,4.53
2018-10-18T16:58:50.507Z,4.93
2018-10-18T17:01:22.293Z,5.13
2018-10-18T17:03:54.093Z,7.77
2018-10-18T17:06:26.172Z,3.63
2018-10-18T17:08:58.516Z,3.40
2018-10-18T17:11:30.458Z,5.20
2018-10-18T17:14:02.264Z,5.13
2018-10-18T17:16:34.111Z,5.43
2018-10-18T17:19:06.554Z,3.27
2018-10-18T17:21:38.265Z,9.50
2018-10-18T17:24:10.116Z,6.80
2018-10-18T17:26:42.327Z,5.80
2018-10-18T17:29:14.120Z,7.80
2018-10-18T17:31:45.895Z,5.33
2018-10-18T17:34:17.517Z,10.93
2018-10-18T17:36:49.304Z,8.00
2018-10-18T17:39:21.978Z,6.40
2018-10-18T17:41:54.234Z,8.87
2018-10-18T17:44:26.969Z,6.40
2018-10-18T17:46:59.723Z,7.97
2018-10-18T17:49:32.119Z,12.20
2018-10-18T17:52:04.219Z,10.33
2018-10-18T17:54:36.565Z,5.73
2018-10-18T17:57:08.575Z,8.53
2018-10-18T17:59:41.919Z,6.70
2018-10-18T18:02:14.465Z,9.20
2018-10-18T18:04:46.948Z,4.70
2018-10-18T18:07:18.920Z,4.10
2018-10-18T18:09:50.985Z,7.17
2018-10-18T18:12:22.619Z,7.37
2018-10-18T18:14:54.497Z,10.50
2018-10-18T18:17:26.808Z,3.13
2018-10-18T18:19:58.512Z,6.50
2018-10-18T18:22:30.370Z,6.00
2018-10-18T18:25:02.473Z,4.53
2018-10-18T18:27:34.107Z,3.97
2018-10-18T18:30:06.848Z,3.20
2018-10-18T18:32:38.571Z,8.23
2018-10-18T18:35:10.581Z,4.40
2018-10-18T18:37:42.454Z,4.43
2018-10-18T18:40:14.239Z,5.27
2018-10-18T18:42:46.147Z,6.37
2018-10-18T18:45:22.134Z,4.43
2018-10-18T18:47:54.060Z,2.10
2018-10-18T18:50:25.873Z,6.93
2018-10-18T18:52:57.692Z,8.23
2018-10-18T18:55:29.842Z,2.17
2018-10-18T18:58:01.910Z,4.80
2018-10-18T19:00:34.631Z,3.20
2018-10-18T19:03:06.892Z,2.30
2018-10-18T19:05:38.722Z,2.97
2018-10-18T19:08:10.684Z,3.90
2018-10-18T19:10:42.601Z,4.03
2018-10-18T19:13:14.553Z,8.73
2018-10-18T19:15:46.414Z,6.07
2018-10-18T19:18:18.198Z,3.00
2018-10-18T19:20:50.185Z,6.73
2018-10-18T19:23:22.436Z,6.77
2018-10-18T19:25:54.365Z,4.73
2018-10-18T19:28:26.287Z,7.27
2018-10-18T19:30:59.661Z,3.33
2018-10-18T19:33:31.535Z,3.07
2018-10-18T19:36:03.429Z,4.90
2018-10-18T19:38:35.319Z,4.23
2018-10-18T19:41:07.577Z,2.23
2018-10-18T19:43:39.680Z,2.90
2018-10-18T19:46:13.649Z,5.90
2018-10-18T19:48:45.505Z,5.37
2018-10-18T19:51:17.415Z,7.43
2018-10-18T19:53:49.362Z,6.93
2018-10-18T19:56:21.539Z,5.37
2018-10-18T19:58:53.408Z,3.30
2018-10-18T20:01:25.905Z,5.83
2018-10-18T20:03:57.803Z,3.97
2018-10-18T20:06:29.860Z,5.00
2018-10-18T20:09:01.684Z,2.70
2018-10-18T20:11:33.582Z,6.73
2018-10-18T20:14:05.742Z,8.13
2018-10-18T20:16:37.892Z,5.80
2018-10-18T20:19:10.283Z,8.40
2018-10-18T20:21:42.429Z,6.47
2018-10-18T20:24:14.401Z,5.73
2018-10-18T20:26:46.373Z,9.23
2018-10-18T20:29:18.045Z,5.80
2018-10-18T20:31:49.988Z,4.27
2018-10-18T20:34:21.667Z,7.10
2018-10-18T20:36:53.377Z,5.10
2018-10-18T20:39:31.768Z,8.30
2018-10-18T20:42:04.437Z,9.63
2018-10-18T20:44:36.087Z,4.10
2018-10-18T20:47:08.037Z,8.60
2018-10-18T20:49:40.175Z,6.10
2018-10-18T20:52:12.491Z,5.70
2018-10-18T20:54:44.191Z,5.23
2018-10-18T20:57:16.399Z,4.47
2018-10-18T20:59:48.211Z,9.53
2018-10-18T21:02:20.100Z,7.20
2018-10-18T21:04:51.994Z,4.37
2018-10-18T21:07:24.005Z,6.90
2018-10-18T21:09:56.033Z,6.20
2018-10-18T21:12:27.636Z,4.43
2018-10-18T21:14:59.493Z,5.37
2018-10-18T21:17:31.196Z,5.33
2018-10-18T21:20:03.037Z,10.87
2018-10-18T21:22:34.837Z,7.00
2018-10-18T21:25:07.367Z,5.43
2018-10-18T21:27:39.193Z,3.90
2018-10-18T21:30:10.951Z,3.93
2018-10-18T21:32:42.837Z,5.57
2018-10-18T21:35:14.547Z,4.60
2018-10-18T21:37:46.353Z,4.47
2018-10-18T21:40:18.025Z,4.00
2018-10-18T21:42:49.900Z,8.10
2018-10-18T21:45:22.042Z,4.53
2018-10-18T21:47:54.019Z,5.10
2018-10-18T21:50:26.387Z,4.83
2018-10-18T21:52:58.169Z,4.63
2018-10-18T21:55:29.769Z,6.23
2018-10-18T21:58:01.579Z,4.43
2018-10-18T22:00:37.731Z,4.30
2018-10-18T22:03:09.481Z,4.87
2018-10-18T22:05:41.265Z,4.87
2018-10-18T22:08:12.895Z,3.50
2018-10-18T22:10:44.630Z,6.93
2018-10-18T22:13:16.349Z,6.87
2018-10-18T22:15:48.199Z,17.33
2018-10-18T22:18:19.995Z,6.27
2018-10-18T22:20:52.009Z,4.30
2018-10-18T22:23:24.580Z,9.63
2018-10-18T22:25:56.216Z,5.03
2018-10-18T22:28:28.043Z,3.80
2018-10-18T22:30:59.869Z,5.10
2018-10-18T22:33:32.522Z,9.53
2018-10-18T22:36:04.598Z,3.90
2018-10-18T22:38:37.248Z,4.57
2018-10-18T22:41:09.380Z,7.47
2018-10-18T22:43:41.903Z,7.67
2018-10-18T22:46:13.601Z,4.20
2018-10-18T22:48:45.327Z,8.87
2018-10-18T22:51:17.071Z,4.47
2018-10-18T22:53:48.907Z,6.13
2018-10-18T22:56:20.871Z,3.90
2018-10-18T22:58:53.600Z,7.83
2018-10-18T23:01:26.041Z,5.23
2018-10-18T23:03:57.643Z,7.00
2018-10-18T23:06:29.431Z,6.97
2018-10-18T23:09:01.289Z,4.03
2018-10-18T23:11:32.948Z,5.17
2018-10-18T23:14:04.889Z,7.03
2018-10-18T23:16:36.844Z,4.03
2018-10-18T23:19:09.633Z,6.80
2018-10-18T23:21:41.375Z,4.40
2018-10-18T23:24:13.120Z,5.90
2018-10-18T23:26:44.947Z,3.83
2018-10-18T23:29:17.028Z,4.13
2018-10-18T23:31:48.819Z,7.33
2018-10-18T23:34:20.604Z,4.60
2018-10-18T23:36:52.324Z,4.03
2018-10-18T23:39:23.908Z,6.50
2018-10-18T23:41:55.559Z,3.33
2018-10-18T23:44:27.711Z,4.27
2018-10-18T23:47:00.336Z,5.50
2018-10-18T23:49:33.103Z,4.77
2018-10-18T23:52:05.772Z,8.87
2018-10-18T23:54:38.273Z,4.27
2018-10-18T23:57:10.128Z,6.60
2018-10-18T23:59:42.176Z,7.20
